sensor_id;sensor_type;location;lat;lon;timestamp;P1;durP1;ratioP1;P2;durP2;ratioP2
57327;SDS011;43162;51.040;18.244;2023-06-24T00:00:24;38.90;;;22.60;;
57327;SDS011;43162;51.040;18.244;2023-06-24T00:02:50;34.30;;;23.40;;
57327;SDS011;43162;51.040;18.244;2023-06-24T00:05:19;43.80;;;23.70;;
57327;SDS011;43162;51.040;18.244;2023-06-24T00:07:44;35.10;;;24.40;;
57327;SDS011;43162;51.040;18.244;2023-06-24T00:10:10;37.30;;;24.40;;
57327;SDS011;43162;51.040;18.244;2023-06-24T00:12:37;36.90;;;23.20;;
57327;SDS011;43162;51.040;18.244;2023-06-24T00:15:05;35.30;;;23.60;;
57327;SDS011;43162;51.040;18.244;2023-06-24T00:17:31;34.00;;;20.80;;
57327;SDS011;43162;51.040;18.244;2023-06-24T00:19:57;30.20;;;22.70;;
57327;SDS011;43162;51.040;18.244;2023-06-24T00:22:22;29.80;;;21.70;;
57327;SDS011;43162;51.040;18.244;2023-06-24T00:24:48;30.30;;;20.50;;
57327;SDS011;43162;51.040;18.244;2023-06-24T00:27:14;32.30;;;19.30;;
57327;SDS011;43162;51.040;18.244;2023-06-24T00:29:39;41.10;;;23.10;;
57327;SDS011;43162;51.040;18.244;2023-06-24T00:32:05;42.90;;;23.50;;
57327;SDS011;43162;51.040;18.244;2023-06-24T00:34:31;36.80;;;24.50;;
57327;SDS011;43162;51.040;18.244;2023-06-24T00:36:57;45.00;;;25.70;;
57327;SDS011;43162;51.040;18.244;2023-06-24T00:39:22;45.00;;;25.50;;
57327;SDS011;43162;51.040;18.244;2023-06-24T00:41:48;35.20;;;23.40;;
57327;SDS011;43162;51.040;18.244;2023-06-24T00:44:14;30.70;;;21.30;;
57327;SDS011;43162;51.040;18.244;2023-06-24T00:46:40;23.80;;;19.20;;
57327;SDS011;43162;51.040;18.244;2023-06-24T00:49:06;32.00;;;20.10;;
57327;SDS011;43162;51.040;18.244;2023-06-24T00:51:31;41.50;;;20.80;;
57327;SDS011;43162;51.040;18.244;2023-06-24T00:53:59;32.50;;;21.10;;
57327;SDS011;43162;51.040;18.244;2023-06-24T00:56:29;35.70;;;22.40;;
57327;SDS011;43162;51.040;18.244;2023-06-24T00:58:55;31.70;;;18.70;;
57327;SDS011;43162;51.040;18.244;2023-06-24T01:01:21;37.30;;;22.50;;
57327;SDS011;43162;51.040;18.244;2023-06-24T01:03:49;32.30;;;22.90;;
57327;SDS011;43162;51.040;18.244;2023-06-24T01:06:14;34.30;;;22.90;;
57327;SDS011;43162;51.040;18.244;2023-06-24T01:08:40;37.30;;;23.20;;
57327;SDS011;43162;51.040;18.244;2023-06-24T01:11:06;37.60;;;23.20;;
57327;SDS011;43162;51.040;18.244;2023-06-24T01:13:32;42.60;;;20.80;;
57327;SDS011;43162;51.040;18.244;2023-06-24T01:15:58;41.30;;;23.00;;
57327;SDS011;43162;51.040;18.244;2023-06-24T01:18:30;34.30;;;22.10;;
57327;SDS011;43162;51.040;18.244;2023-06-24T01:36:40;36.00;;;20.20;;
57327;SDS011;43162;51.040;18.244;2023-06-24T01:39:08;35.20;;;20.60;;
57327;SDS011;43162;51.040;18.244;2023-06-24T01:41:36;36.30;;;21.60;;
57327;SDS011;43162;51.040;18.244;2023-06-24T01:44:03;34.10;;;20.90;;
57327;SDS011;43162;51.040;18.244;2023-06-24T01:46:29;28.70;;;18.30;;
57327;SDS011;43162;51.040;18.244;2023-06-24T01:48:55;26.10;;;17.00;;
57327;SDS011;43162;51.040;18.244;2023-06-24T01:51:23;26.10;;;16.10;;
57327;SDS011;43162;51.040;18.244;2023-06-24T01:53:58;24.70;;;15.50;;
57327;SDS011;43162;51.040;18.244;2023-06-24T01:56:25;29.10;;;15.10;;
57327;SDS011;43162;51.040;18.244;2023-06-24T01:58:52;24.40;;;15.50;;
57327;SDS011;43162;51.040;18.244;2023-06-24T02:01:18;33.90;;;14.80;;
57327;SDS011;43162;51.040;18.244;2023-06-24T02:03:44;26.30;;;13.40;;
57327;SDS011;43162;51.040;18.244;2023-06-24T02:06:10;32.10;;;14.10;;
57327;SDS011;43162;51.040;18.244;2023-06-24T02:08:37;29.30;;;14.80;;
57327;SDS011;43162;51.040;18.244;2023-06-24T02:11:03;25.10;;;15.00;;
57327;SDS011;43162;51.040;18.244;2023-06-24T02:13:29;24.40;;;13.30;;
57327;SDS011;43162;51.040;18.244;2023-06-24T02:16:01;28.80;;;12.00;;
57327;SDS011;43162;51.040;18.244;2023-06-24T02:18:28;22.50;;;12.10;;
57327;SDS011;43162;51.040;18.244;2023-06-24T02:20:53;15.50;;;10.70;;
57327;SDS011;43162;51.040;18.244;2023-06-24T02:23:20;15.60;;;11.00;;
57327;SDS011;43162;51.040;18.244;2023-06-24T02:25:46;18.10;;;11.50;;
57327;SDS011;43162;51.040;18.244;2023-06-24T02:28:12;17.90;;;10.30;;
57327;SDS011;43162;51.040;18.244;2023-06-24T02:30:41;21.10;;;12.90;;
57327;SDS011;43162;51.040;18.244;2023-06-24T02:33:07;24.70;;;13.40;;
57327;SDS011;43162;51.040;18.244;2023-06-24T02:35:34;18.50;;;13.50;;
57327;SDS011;43162;51.040;18.244;2023-06-24T02:38:00;23.70;;;15.20;;
57327;SDS011;43162;51.040;18.244;2023-06-24T02:40:25;19.90;;;13.20;;
57327;SDS011;43162;51.040;18.244;2023-06-24T02:42:52;21.10;;;14.50;;
57327;SDS011;43162;51.040;18.244;2023-06-24T02:45:17;22.80;;;15.40;;
57327;SDS011;43162;51.040;18.244;2023-06-24T02:47:43;20.40;;;13.30;;
57327;SDS011;43162;51.040;18.244;2023-06-24T02:50:10;29.60;;;14.50;;
57327;SDS011;43162;51.040;18.244;2023-06-24T02:52:36;20.40;;;14.80;;
57327;SDS011;43162;51.040;18.244;2023-06-24T02:55:03;21.40;;;15.10;;
57327;SDS011;43162;51.040;18.244;2023-06-24T02:57:28;23.10;;;13.20;;
57327;SDS011;43162;51.040;18.244;2023-06-24T02:59:54;26.80;;;15.40;;
57327;SDS011;43162;51.040;18.244;2023-06-24T03:02:20;22.80;;;14.70;;
57327;SDS011;43162;51.040;18.244;2023-06-24T03:04:46;21.90;;;15.10;;
57327;SDS011;43162;51.040;18.244;2023-06-24T03:07:12;27.10;;;17.10;;
57327;SDS011;43162;51.040;18.244;2023-06-24T03:09:38;22.70;;;15.30;;
57327;SDS011;43162;51.040;18.244;2023-06-24T03:12:05;26.90;;;16.40;;
57327;SDS011;43162;51.040;18.244;2023-06-24T03:14:31;25.90;;;16.90;;
57327;SDS011;43162;51.040;18.244;2023-06-24T03:16:56;22.20;;;16.60;;
57327;SDS011;43162;51.040;18.244;2023-06-24T03:19:22;27.30;;;15.90;;
57327;SDS011;43162;51.040;18.244;2023-06-24T03:21:48;29.00;;;15.20;;
57327;SDS011;43162;51.040;18.244;2023-06-24T03:24:13;25.90;;;14.30;;
57327;SDS011;43162;51.040;18.244;2023-06-24T03:26:39;23.10;;;13.80;;
57327;SDS011;43162;51.040;18.244;2023-06-24T03:29:07;20.50;;;16.00;;
57327;SDS011;43162;51.040;18.244;2023-06-24T03:31:33;18.70;;;14.20;;
57327;SDS011;43162;51.040;18.244;2023-06-24T03:33:59;15.40;;;11.50;;
57327;SDS011;43162;51.040;18.244;2023-06-24T03:36:24;20.70;;;15.00;;
57327;SDS011;43162;51.040;18.244;2023-06-24T03:38:50;28.70;;;15.80;;
57327;SDS011;43162;51.040;18.244;2023-06-24T03:41:16;21.30;;;15.10;;
57327;SDS011;43162;51.040;18.244;2023-06-24T03:43:41;15.00;;;12.00;;
57327;SDS011;43162;51.040;18.244;2023-06-24T03:46:07;20.40;;;13.60;;
57327;SDS011;43162;51.040;18.244;2023-06-24T03:48:33;21.20;;;13.00;;
57327;SDS011;43162;51.040;18.244;2023-06-24T03:50:58;18.40;;;11.20;;
57327;SDS011;43162;51.040;18.244;2023-06-24T03:53:24;16.30;;;11.20;;
57327;SDS011;43162;51.040;18.244;2023-06-24T03:55:50;19.40;;;12.70;;
57327;SDS011;43162;51.040;18.244;2023-06-24T03:58:15;18.60;;;11.80;;
57327;SDS011;43162;51.040;18.244;2023-06-24T04:00:42;16.00;;;11.10;;
57327;SDS011;43162;51.040;18.244;2023-06-24T04:03:09;18.50;;;12.30;;
57327;SDS011;43162;51.040;18.244;2023-06-24T04:05:35;16.70;;;12.70;;
57327;SDS011;43162;51.040;18.244;2023-06-24T04:08:01;21.80;;;13.10;;
57327;SDS011;43162;51.040;18.244;2023-06-24T04:10:29;13.90;;;11.90;;
57327;SDS011;43162;51.040;18.244;2023-06-24T04:12:54;22.50;;;14.80;;
57327;SDS011;43162;51.040;18.244;2023-06-24T04:15:20;19.00;;;14.40;;
57327;SDS011;43162;51.040;18.244;2023-06-24T04:17:45;16.50;;;13.50;;
57327;SDS011;43162;51.040;18.244;2023-06-24T04:20:11;22.60;;;14.30;;
57327;SDS011;43162;51.040;18.244;2023-06-24T04:22:37;18.50;;;11.80;;
57327;SDS011;43162;51.040;18.244;2023-06-24T04:25:03;12.90;;;10.80;;
57327;SDS011;43162;51.040;18.244;2023-06-24T04:27:32;12.70;;;11.10;;
57327;SDS011;43162;51.040;18.244;2023-06-24T04:29:58;12.50;;;8.20;;
57327;SDS011;43162;51.040;18.244;2023-06-24T04:32:24;14.10;;;8.20;;
57327;SDS011;43162;51.040;18.244;2023-06-24T04:34:50;12.50;;;9.40;;
57327;SDS011;43162;51.040;18.244;2023-06-24T04:37:15;14.80;;;11.70;;
57327;SDS011;43162;51.040;18.244;2023-06-24T04:39:43;11.20;;;8.40;;
57327;SDS011;43162;51.040;18.244;2023-06-24T04:42:09;11.80;;;8.20;;
57327;SDS011;43162;51.040;18.244;2023-06-24T04:44:35;8.70;;;7.40;;
57327;SDS011;43162;51.040;18.244;2023-06-24T04:47:00;12.80;;;8.70;;
57327;SDS011;43162;51.040;18.244;2023-06-24T04:49:25;11.30;;;7.60;;
57327;SDS011;43162;51.040;18.244;2023-06-24T04:51:51;9.30;;;7.20;;
57327;SDS011;43162;51.040;18.244;2023-06-24T04:54:17;8.00;;;6.10;;
57327;SDS011;43162;51.040;18.244;2023-06-24T04:56:42;8.10;;;5.30;;
57327;SDS011;43162;51.040;18.244;2023-06-24T04:59:09;13.60;;;7.50;;
57327;SDS011;43162;51.040;18.244;2023-06-24T05:01:35;11.80;;;6.20;;
57327;SDS011;43162;51.040;18.244;2023-06-24T05:04:00;8.90;;;5.50;;
57327;SDS011;43162;51.040;18.244;2023-06-24T05:06:26;8.90;;;5.40;;
57327;SDS011;43162;51.040;18.244;2023-06-24T05:08:51;9.90;;;7.40;;
57327;SDS011;43162;51.040;18.244;2023-06-24T05:11:17;9.80;;;6.60;;
57327;SDS011;43162;51.040;18.244;2023-06-24T05:13:42;8.50;;;6.50;;
57327;SDS011;43162;51.040;18.244;2023-06-24T05:16:08;10.00;;;8.00;;
57327;SDS011;43162;51.040;18.244;2023-06-24T05:18:33;6.80;;;4.80;;
57327;SDS011;43162;51.040;18.244;2023-06-24T05:20:58;15.10;;;6.20;;
57327;SDS011;43162;51.040;18.244;2023-06-24T05:23:24;8.60;;;6.70;;
57327;SDS011;43162;51.040;18.244;2023-06-24T05:25:49;11.00;;;6.70;;
57327;SDS011;43162;51.040;18.244;2023-06-24T05:28:15;12.60;;;6.90;;
57327;SDS011;43162;51.040;18.244;2023-06-24T05:30:41;8.40;;;5.70;;
57327;SDS011;43162;51.040;18.244;2023-06-24T05:33:06;10.90;;;7.50;;
57327;SDS011;43162;51.040;18.244;2023-06-24T05:35:31;12.80;;;7.50;;
57327;SDS011;43162;51.040;18.244;2023-06-24T05:37:57;8.50;;;6.20;;
57327;SDS011;43162;51.040;18.244;2023-06-24T05:40:23;9.70;;;8.40;;
57327;SDS011;43162;51.040;18.244;2023-06-24T05:42:48;13.00;;;7.10;;
57327;SDS011;43162;51.040;18.244;2023-06-24T05:45:14;12.50;;;7.30;;
57327;SDS011;43162;51.040;18.244;2023-06-24T05:47:39;8.40;;;6.20;;
57327;SDS011;43162;51.040;18.244;2023-06-24T05:50:05;8.10;;;7.20;;
57327;SDS011;43162;51.040;18.244;2023-06-24T05:52:30;9.20;;;6.80;;
57327;SDS011;43162;51.040;18.244;2023-06-24T05:54:56;11.60;;;6.40;;
57327;SDS011;43162;51.040;18.244;2023-06-24T05:57:21;11.00;;;6.90;;
57327;SDS011;43162;51.040;18.244;2023-06-24T05:59:47;11.80;;;7.70;;
57327;SDS011;43162;51.040;18.244;2023-06-24T06:02:12;9.60;;;7.20;;
57327;SDS011;43162;51.040;18.244;2023-06-24T06:04:38;13.00;;;7.80;;
57327;SDS011;43162;51.040;18.244;2023-06-24T06:07:04;9.80;;;7.60;;
57327;SDS011;43162;51.040;18.244;2023-06-24T06:09:30;8.60;;;7.70;;
57327;SDS011;43162;51.040;18.244;2023-06-24T06:11:55;10.40;;;8.90;;
57327;SDS011;43162;51.040;18.244;2023-06-24T06:14:20;10.10;;;6.10;;
57327;SDS011;43162;51.040;18.244;2023-06-24T06:16:46;8.60;;;6.60;;
57327;SDS011;43162;51.040;18.244;2023-06-24T06:19:11;10.70;;;8.40;;
57327;SDS011;43162;51.040;18.244;2023-06-24T06:21:37;11.60;;;8.70;;
57327;SDS011;43162;51.040;18.244;2023-06-24T06:24:03;9.90;;;7.90;;
57327;SDS011;43162;51.040;18.244;2023-06-24T06:26:28;11.90;;;6.90;;
57327;SDS011;43162;51.040;18.244;2023-06-24T06:28:54;10.80;;;9.10;;
57327;SDS011;43162;51.040;18.244;2023-06-24T06:31:20;12.40;;;7.80;;
57327;SDS011;43162;51.040;18.244;2023-06-24T06:33:46;13.10;;;7.50;;
57327;SDS011;43162;51.040;18.244;2023-06-24T06:36:12;11.80;;;7.40;;
57327;SDS011;43162;51.040;18.244;2023-06-24T06:38:40;8.90;;;6.30;;
57327;SDS011;43162;51.040;18.244;2023-06-24T06:41:05;7.00;;;4.30;;
57327;SDS011;43162;51.040;18.244;2023-06-24T06:43:31;13.50;;;7.00;;
57327;SDS011;43162;51.040;18.244;2023-06-24T06:45:57;11.30;;;4.70;;
57327;SDS011;43162;51.040;18.244;2023-06-24T06:48:23;10.90;;;7.80;;
57327;SDS011;43162;51.040;18.244;2023-06-24T06:50:48;7.20;;;5.60;;
57327;SDS011;43162;51.040;18.244;2023-06-24T06:53:15;6.70;;;6.00;;
57327;SDS011;43162;51.040;18.244;2023-06-24T06:55:40;7.40;;;5.80;;
57327;SDS011;43162;51.040;18.244;2023-06-24T06:58:08;11.40;;;7.40;;
57327;SDS011;43162;51.040;18.244;2023-06-24T07:00:33;9.40;;;6.10;;
57327;SDS011;43162;51.040;18.244;2023-06-24T07:02:58;6.90;;;6.10;;
57327;SDS011;43162;51.040;18.244;2023-06-24T07:05:24;8.80;;;6.70;;
57327;SDS011;43162;51.040;18.244;2023-06-24T07:07:50;7.80;;;6.00;;
57327;SDS011;43162;51.040;18.244;2023-06-24T07:10:15;14.20;;;7.50;;
57327;SDS011;43162;51.040;18.244;2023-06-24T07:12:42;7.40;;;5.90;;
57327;SDS011;43162;51.040;18.244;2023-06-24T07:15:08;11.60;;;7.80;;
57327;SDS011;43162;51.040;18.244;2023-06-24T07:17:33;10.90;;;7.60;;
57327;SDS011;43162;51.040;18.244;2023-06-24T07:19:59;9.10;;;7.30;;
57327;SDS011;43162;51.040;18.244;2023-06-24T07:22:24;9.30;;;7.10;;
57327;SDS011;43162;51.040;18.244;2023-06-24T07:24:50;8.10;;;7.10;;
57327;SDS011;43162;51.040;18.244;2023-06-24T07:27:15;8.20;;;6.30;;
57327;SDS011;43162;51.040;18.244;2023-06-24T07:29:40;8.30;;;7.00;;
57327;SDS011;43162;51.040;18.244;2023-06-24T07:32:06;8.90;;;6.60;;
57327;SDS011;43162;51.040;18.244;2023-06-24T07:34:32;8.40;;;6.90;;
57327;SDS011;43162;51.040;18.244;2023-06-24T07:36:58;9.50;;;7.60;;
57327;SDS011;43162;51.040;18.244;2023-06-24T07:39:24;10.60;;;6.90;;
57327;SDS011;43162;51.040;18.244;2023-06-24T07:41:49;6.10;;;5.50;;
57327;SDS011;43162;51.040;18.244;2023-06-24T07:44:15;4.30;;;3.80;;
57327;SDS011;43162;51.040;18.244;2023-06-24T07:46:41;5.70;;;3.90;;
57327;SDS011;43162;51.040;18.244;2023-06-24T07:49:06;6.80;;;4.90;;
57327;SDS011;43162;51.040;18.244;2023-06-24T07:51:32;6.10;;;5.40;;
57327;SDS011;43162;51.040;18.244;2023-06-24T07:54:00;5.30;;;4.20;;
57327;SDS011;43162;51.040;18.244;2023-06-24T07:56:25;11.50;;;4.60;;
57327;SDS011;43162;51.040;18.244;2023-06-24T07:58:51;5.20;;;4.30;;
57327;SDS011;43162;51.040;18.244;2023-06-24T08:01:16;8.70;;;4.40;;
57327;SDS011;43162;51.040;18.244;2023-06-24T08:03:42;4.70;;;4.00;;
57327;SDS011;43162;51.040;18.244;2023-06-24T08:06:07;7.60;;;5.40;;
57327;SDS011;43162;51.040;18.244;2023-06-24T08:08:32;10.80;;;7.10;;
57327;SDS011;43162;51.040;18.244;2023-06-24T08:10:59;16.40;;;9.10;;
57327;SDS011;43162;51.040;18.244;2023-06-24T08:13:24;13.10;;;7.50;;
57327;SDS011;43162;51.040;18.244;2023-06-24T08:15:50;17.00;;;8.90;;
57327;SDS011;43162;51.040;18.244;2023-06-24T08:18:15;8.00;;;5.50;;
57327;SDS011;43162;51.040;18.244;2023-06-24T08:20:41;5.80;;;5.00;;
57327;SDS011;43162;51.040;18.244;2023-06-24T08:23:06;5.80;;;5.20;;
57327;SDS011;43162;51.040;18.244;2023-06-24T08:25:32;10.20;;;6.30;;
57327;SDS011;43162;51.040;18.244;2023-06-24T08:27:57;7.10;;;5.60;;
57327;SDS011;43162;51.040;18.244;2023-06-24T08:30:23;6.50;;;4.40;;
57327;SDS011;43162;51.040;18.244;2023-06-24T08:32:48;9.30;;;7.20;;
57327;SDS011;43162;51.040;18.244;2023-06-24T08:35:14;7.00;;;4.30;;
57327;SDS011;43162;51.040;18.244;2023-06-24T08:37:40;8.40;;;5.80;;
57327;SDS011;43162;51.040;18.244;2023-06-24T08:40:06;6.00;;;4.80;;
57327;SDS011;43162;51.040;18.244;2023-06-24T08:42:31;7.20;;;4.90;;
57327;SDS011;43162;51.040;18.244;2023-06-24T08:44:57;7.40;;;4.50;;
57327;SDS011;43162;51.040;18.244;2023-06-24T08:47:23;6.90;;;5.20;;
57327;SDS011;43162;51.040;18.244;2023-06-24T08:49:52;10.70;;;5.30;;
57327;SDS011;43162;51.040;18.244;2023-06-24T08:52:21;4.90;;;4.30;;
57327;SDS011;43162;51.040;18.244;2023-06-24T08:54:50;10.30;;;5.00;;
57327;SDS011;43162;51.040;18.244;2023-06-24T08:57:16;4.90;;;3.90;;
57327;SDS011;43162;51.040;18.244;2023-06-24T08:59:42;7.50;;;4.70;;
57327;SDS011;43162;51.040;18.244;2023-06-24T09:02:08;10.40;;;6.30;;
57327;SDS011;43162;51.040;18.244;2023-06-24T09:04:34;6.50;;;4.60;;
57327;SDS011;43162;51.040;18.244;2023-06-24T09:06:59;4.80;;;3.70;;
57327;SDS011;43162;51.040;18.244;2023-06-24T09:09:25;9.00;;;5.00;;
57327;SDS011;43162;51.040;18.244;2023-06-24T09:11:59;7.20;;;5.20;;
57327;SDS011;43162;51.040;18.244;2023-06-24T09:14:25;7.50;;;4.80;;
57327;SDS011;43162;51.040;18.244;2023-06-24T09:16:52;7.10;;;5.30;;
57327;SDS011;43162;51.040;18.244;2023-06-24T09:19:25;8.60;;;5.20;;
57327;SDS011;43162;51.040;18.244;2023-06-24T09:21:57;9.10;;;5.90;;
57327;SDS011;43162;51.040;18.244;2023-06-24T09:24:36;7.20;;;4.20;;
57327;SDS011;43162;51.040;18.244;2023-06-24T09:27:03;6.50;;;4.20;;
57327;SDS011;43162;51.040;18.244;2023-06-24T09:29:32;6.00;;;4.50;;
57327;SDS011;43162;51.040;18.244;2023-06-24T09:31:58;8.50;;;4.70;;
57327;SDS011;43162;51.040;18.244;2023-06-24T09:34:26;6.10;;;4.60;;
57327;SDS011;43162;51.040;18.244;2023-06-24T09:36:52;7.30;;;4.70;;
57327;SDS011;43162;51.040;18.244;2023-06-24T09:39:18;8.50;;;4.30;;
57327;SDS011;43162;51.040;18.244;2023-06-24T09:41:48;7.30;;;5.20;;
57327;SDS011;43162;51.040;18.244;2023-06-24T09:44:14;9.60;;;5.50;;
57327;SDS011;43162;51.040;18.244;2023-06-24T09:46:41;9.70;;;6.40;;
57327;SDS011;43162;51.040;18.244;2023-06-24T09:49:07;11.60;;;7.70;;
57327;SDS011;43162;51.040;18.244;2023-06-24T09:51:34;14.50;;;7.60;;
57327;SDS011;43162;51.040;18.244;2023-06-24T09:54:03;9.00;;;4.60;;
57327;SDS011;43162;51.040;18.244;2023-06-24T09:56:30;7.10;;;5.40;;
57327;SDS011;43162;51.040;18.244;2023-06-24T09:58:56;8.90;;;4.90;;
57327;SDS011;43162;51.040;18.244;2023-06-24T10:01:21;8.70;;;4.60;;
57327;SDS011;43162;51.040;18.244;2023-06-24T10:03:47;15.40;;;7.50;;
57327;SDS011;43162;51.040;18.244;2023-06-24T10:06:13;11.50;;;6.90;;
57327;SDS011;43162;51.040;18.244;2023-06-24T10:08:39;15.60;;;7.40;;
57327;SDS011;43162;51.040;18.244;2023-06-24T10:11:04;22.90;;;6.90;;
57327;SDS011;43162;51.040;18.244;2023-06-24T10:13:30;12.40;;;4.60;;
57327;SDS011;43162;51.040;18.244;2023-06-24T10:15:56;11.60;;;4.80;;
57327;SDS011;43162;51.040;18.244;2023-06-24T10:20:56;4.70;;;3.20;;
57327;SDS011;43162;51.040;18.244;2023-06-24T10:23:21;6.20;;;3.40;;
57327;SDS011;43162;51.040;18.244;2023-06-24T10:25:47;11.70;;;5.10;;
57327;SDS011;43162;51.040;18.244;2023-06-24T10:28:13;16.70;;;6.20;;
57327;SDS011;43162;51.040;18.244;2023-06-24T10:30:38;9.40;;;4.80;;
57327;SDS011;43162;51.040;18.244;2023-06-24T10:33:04;9.10;;;3.90;;
57327;SDS011;43162;51.040;18.244;2023-06-24T10:35:35;10.80;;;4.80;;
57327;SDS011;43162;51.040;18.244;2023-06-24T10:38:07;16.10;;;8.50;;
57327;SDS011;43162;51.040;18.244;2023-06-24T10:40:35;16.60;;;5.80;;
57327;SDS011;43162;51.040;18.244;2023-06-24T10:43:04;6.80;;;4.60;;
57327;SDS011;43162;51.040;18.244;2023-06-24T10:45:51;7.10;;;4.70;;
57327;SDS011;43162;51.040;18.244;2023-06-24T10:48:17;8.40;;;4.60;;
57327;SDS011;43162;51.040;18.244;2023-06-24T10:50:45;8.20;;;4.60;;
57327;SDS011;43162;51.040;18.244;2023-06-24T10:53:12;8.90;;;4.70;;
57327;SDS011;43162;51.040;18.244;2023-06-24T10:55:37;16.10;;;6.80;;
57327;SDS011;43162;51.040;18.244;2023-06-24T10:58:09;5.60;;;4.70;;
57327;SDS011;43162;51.040;18.244;2023-06-24T11:00:36;7.40;;;4.80;;
57327;SDS011;43162;51.040;18.244;2023-06-24T11:03:11;14.20;;;6.50;;
57327;SDS011;43162;51.040;18.244;2023-06-24T11:05:40;13.90;;;8.10;;
57327;SDS011;43162;51.040;18.244;2023-06-24T11:08:06;15.40;;;8.90;;
57327;SDS011;43162;51.040;18.244;2023-06-24T11:10:32;8.50;;;5.90;;
57327;SDS011;43162;51.040;18.244;2023-06-24T11:12:57;10.30;;;7.00;;
57327;SDS011;43162;51.040;18.244;2023-06-24T11:15:29;7.00;;;4.40;;
57327;SDS011;43162;51.040;18.244;2023-06-24T11:17:55;4.90;;;4.20;;
57327;SDS011;43162;51.040;18.244;2023-06-24T11:20:20;5.40;;;4.60;;
57327;SDS011;43162;51.040;18.244;2023-06-24T11:22:46;10.40;;;4.70;;
57327;SDS011;43162;51.040;18.244;2023-06-24T11:25:20;8.70;;;5.70;;
57327;SDS011;43162;51.040;18.244;2023-06-24T11:27:47;8.50;;;5.70;;
57327;SDS011;43162;51.040;18.244;2023-06-24T11:30:13;6.10;;;5.10;;
57327;SDS011;43162;51.040;18.244;2023-06-24T11:32:39;6.60;;;5.60;;
57327;SDS011;43162;51.040;18.244;2023-06-24T11:35:05;5.50;;;4.80;;
57327;SDS011;43162;51.040;18.244;2023-06-24T11:37:31;8.00;;;4.80;;
57327;SDS011;43162;51.040;18.244;2023-06-24T11:40:04;9.50;;;5.70;;
57327;SDS011;43162;51.040;18.244;2023-06-24T11:42:30;10.00;;;4.90;;
57327;SDS011;43162;51.040;18.244;2023-06-24T11:45:02;5.60;;;4.80;;
57327;SDS011;43162;51.040;18.244;2023-06-24T11:47:30;8.60;;;4.80;;
57327;SDS011;43162;51.040;18.244;2023-06-24T11:49:56;8.60;;;4.40;;
57327;SDS011;43162;51.040;18.244;2023-06-24T11:54:57;5.90;;;4.70;;
57327;SDS011;43162;51.040;18.244;2023-06-24T11:57:46;8.40;;;4.90;;
57327;SDS011;43162;51.040;18.244;2023-06-24T12:00:12;7.80;;;4.00;;
57327;SDS011;43162;51.040;18.244;2023-06-24T12:02:38;8.10;;;4.70;;
57327;SDS011;43162;51.040;18.244;2023-06-24T12:05:03;4.50;;;3.90;;
57327;SDS011;43162;51.040;18.244;2023-06-24T12:07:29;7.70;;;4.70;;
57327;SDS011;43162;51.040;18.244;2023-06-24T12:09:54;6.00;;;4.40;;
57327;SDS011;43162;51.040;18.244;2023-06-24T12:12:21;8.10;;;4.70;;
57327;SDS011;43162;51.040;18.244;2023-06-24T12:14:46;7.60;;;4.70;;
57327;SDS011;43162;51.040;18.244;2023-06-24T12:17:12;8.20;;;5.00;;
57327;SDS011;43162;51.040;18.244;2023-06-24T12:19:38;5.90;;;5.00;;
57327;SDS011;43162;51.040;18.244;2023-06-24T12:22:03;8.00;;;4.80;;
57327;SDS011;43162;51.040;18.244;2023-06-24T12:24:29;5.20;;;4.70;;
57327;SDS011;43162;51.040;18.244;2023-06-24T12:26:54;9.30;;;4.90;;
57327;SDS011;43162;51.040;18.244;2023-06-24T12:29:21;7.30;;;4.90;;
57327;SDS011;43162;51.040;18.244;2023-06-24T12:31:47;5.80;;;4.60;;
57327;SDS011;43162;51.040;18.244;2023-06-24T12:34:12;11.90;;;5.40;;
57327;SDS011;43162;51.040;18.244;2023-06-24T12:36:38;11.60;;;5.60;;
57327;SDS011;43162;51.040;18.244;2023-06-24T12:39:03;10.40;;;5.20;;
57327;SDS011;43162;51.040;18.244;2023-06-24T12:41:29;7.00;;;5.70;;
57327;SDS011;43162;51.040;18.244;2023-06-24T12:43:54;10.10;;;6.10;;
57327;SDS011;43162;51.040;18.244;2023-06-24T12:46:20;13.20;;;6.30;;
57327;SDS011;43162;51.040;18.244;2023-06-24T12:48:45;7.70;;;5.70;;
57327;SDS011;43162;51.040;18.244;2023-06-24T12:51:11;8.40;;;6.20;;
57327;SDS011;43162;51.040;18.244;2023-06-24T12:53:36;7.00;;;6.30;;
57327;SDS011;43162;51.040;18.244;2023-06-24T12:56:02;9.70;;;6.60;;
57327;SDS011;43162;51.040;18.244;2023-06-24T12:58:27;12.50;;;6.70;;
57327;SDS011;43162;51.040;18.244;2023-06-24T13:00:53;11.80;;;6.70;;
57327;SDS011;43162;51.040;18.244;2023-06-24T13:03:18;11.50;;;7.40;;
57327;SDS011;43162;51.040;18.244;2023-06-24T13:05:44;7.80;;;6.30;;
57327;SDS011;43162;51.040;18.244;2023-06-24T13:08:09;14.20;;;7.60;;
57327;SDS011;43162;51.040;18.244;2023-06-24T13:10:36;9.70;;;5.90;;
57327;SDS011;43162;51.040;18.244;2023-06-24T13:13:03;7.70;;;5.80;;
57327;SDS011;43162;51.040;18.244;2023-06-24T13:15:29;7.50;;;6.70;;
57327;SDS011;43162;51.040;18.244;2023-06-24T13:17:54;12.50;;;6.30;;
57327;SDS011;43162;51.040;18.244;2023-06-24T13:20:20;8.40;;;5.40;;
57327;SDS011;43162;51.040;18.244;2023-06-24T13:22:45;6.80;;;6.10;;
57327;SDS011;43162;51.040;18.244;2023-06-24T13:25:11;7.30;;;6.50;;
57327;SDS011;43162;51.040;18.244;2023-06-24T13:27:36;9.70;;;6.00;;
57327;SDS011;43162;51.040;18.244;2023-06-24T13:30:02;7.00;;;6.30;;
57327;SDS011;43162;51.040;18.244;2023-06-24T13:32:29;9.20;;;6.20;;
57327;SDS011;43162;51.040;18.244;2023-06-24T13:34:55;8.10;;;6.10;;
57327;SDS011;43162;51.040;18.244;2023-06-24T13:37:21;16.70;;;6.40;;
57327;SDS011;43162;51.040;18.244;2023-06-24T13:39:46;9.80;;;6.00;;
57327;SDS011;43162;51.040;18.244;2023-06-24T13:42:13;7.70;;;6.40;;
57327;SDS011;43162;51.040;18.244;2023-06-24T13:44:38;24.80;;;7.80;;
57327;SDS011;43162;51.040;18.244;2023-06-24T13:47:04;9.20;;;7.10;;
57327;SDS011;43162;51.040;18.244;2023-06-24T13:49:29;8.30;;;6.10;;
57327;SDS011;43162;51.040;18.244;2023-06-24T13:51:55;11.70;;;7.70;;
57327;SDS011;43162;51.040;18.244;2023-06-24T13:54:20;7.00;;;6.40;;
57327;SDS011;43162;51.040;18.244;2023-06-24T13:56:46;11.90;;;7.10;;
57327;SDS011;43162;51.040;18.244;2023-06-24T13:59:11;8.90;;;6.60;;
57327;SDS011;43162;51.040;18.244;2023-06-24T14:01:37;11.20;;;7.60;;
57327;SDS011;43162;51.040;18.244;2023-06-24T14:04:03;10.20;;;6.70;;
57327;SDS011;43162;51.040;18.244;2023-06-24T14:06:28;6.90;;;6.10;;
57327;SDS011;43162;51.040;18.244;2023-06-24T14:08:53;8.50;;;6.60;;
57327;SDS011;43162;51.040;18.244;2023-06-24T14:11:19;21.30;;;8.00;;
57327;SDS011;43162;51.040;18.244;2023-06-24T14:13:44;9.30;;;8.00;;
57327;SDS011;43162;51.040;18.244;2023-06-24T14:16:10;9.20;;;7.50;;
57327;SDS011;43162;51.040;18.244;2023-06-24T14:18:36;8.60;;;7.50;;
57327;SDS011;43162;51.040;18.244;2023-06-24T14:21:03;8.90;;;7.40;;
57327;SDS011;43162;51.040;18.244;2023-06-24T14:23:28;9.60;;;8.70;;
57327;SDS011;43162;51.040;18.244;2023-06-24T14:25:54;9.70;;;8.80;;
57327;SDS011;43162;51.040;18.244;2023-06-24T14:28:21;10.30;;;8.90;;
57327;SDS011;43162;51.040;18.244;2023-06-24T14:30:47;11.20;;;8.80;;
57327;SDS011;43162;51.040;18.244;2023-06-24T14:33:13;8.70;;;7.80;;
57327;SDS011;43162;51.040;18.244;2023-06-24T14:35:38;11.60;;;8.60;;
57327;SDS011;43162;51.040;18.244;2023-06-24T14:38:04;13.20;;;8.30;;